Hlavní strana
METAR-TAF:

METAR-TAF

Letiště :

Fairfield County Airport

Lancaster, Ohio, Spojené státy americké

zeměpisná šířka: 39-45-26N, zeměpisná délka: 082-39-48W, výška: 264 m

Aktuální stav počasí

Zpráva byla vytvořena před 1 hodinou a 27 minutami, v 02:53 UTC
Jižní vítr 3 kt
Teplota -3°C
Vlhkost vzduchu 58%
Tlak 1032 hPa
Viditelnost: 16.1 km
Jasno

METAR: KLHQ 220253Z AUTO 17003KT 10SM CLR M03/M10 A3047 RMK AO2 SLP329 T10281100 58011

Čas: 23:20 (04:20 UTC)


TAF: chybějící

Stav a předpovědi počasí z více než 4 000 letišť (zprávy METAR a TAF).

Červené a žluté tečky na mapě představují dostupné meteorologické stanice.

Když kurzor umístíte na tečku, zobrazí se název stanice.

Pak kliknutím zobrazíte stav a předpověď počasí.

Chcete-li změnit mapu, kliknutím na zelené tlačítko se znaménkem +mapu přiblížíte, kliknutím na zelené tlačítko se znaménkem – mapu oddálíte a kliknutím na zelené šipky přejdete na sousední mapy.


METAR-TAF: